createdAt,value
2018-07-28T00:01:31.475Z,96194.80
2018-07-28T00:03:20.740Z,96197.48
2018-07-28T00:04:59.443Z,96194.17
2018-07-28T00:06:40.141Z,96196.48
2018-07-28T00:08:17.868Z,96190.79
2018-07-28T00:12:19.454Z,96187.28
2018-07-28T00:13:58.503Z,96187.72
2018-07-28T00:15:36.456Z,96185.70
2018-07-28T00:17:39.208Z,96180.09
2018-07-28T00:19:18.386Z,96177.35
2018-07-28T00:21:00.825Z,96178.31
2018-07-28T00:22:40.657Z,96178.31
2018-07-28T00:24:20.734Z,96179.73
2018-07-28T00:26:07.569Z,96179.24
2018-07-28T00:28:03.532Z,96181.08
2018-07-28T00:29:46.843Z,96174.00
2018-07-28T00:31:29.340Z,96171.61
2018-07-28T00:33:10.497Z,96174.09
2018-07-28T00:34:49.449Z,96165.82
2018-07-28T00:36:43.033Z,96176.98
2018-07-28T00:40:08.468Z,96177.25
2018-07-28T00:41:52.433Z,96171.20
2018-07-28T00:43:30.276Z,96171.12
2018-07-28T00:46:16.234Z,96162.65
2018-07-28T00:47:59.245Z,96159.40
2018-07-28T00:49:43.381Z,96158.39
2018-07-28T00:51:22.457Z,96160.54
2018-07-28T00:53:01.413Z,96158.42
2018-07-28T00:54:40.512Z,96152.55
2018-07-28T00:58:42.540Z,96154.31
2018-07-28T01:00:21.310Z,96152.99
2018-07-28T01:03:50.260Z,96152.64
2018-07-28T01:05:42.452Z,96152.80
2018-07-28T01:07:22.393Z,96150.50
2018-07-28T01:09:23.535Z,96148.65
2018-07-28T01:11:05.031Z,96147.62
2018-07-28T01:12:42.434Z,96145.37
2018-07-28T01:14:17.522Z,96143.70
2018-07-28T01:15:53.563Z,96144.66
2018-07-28T01:17:29.813Z,96136.73
2018-07-28T01:19:07.341Z,96142.45
2018-07-28T01:20:42.554Z,96137.59
2018-07-28T01:22:17.844Z,96134.38
2018-07-28T01:23:53.690Z,96135.88
2018-07-28T01:25:28.876Z,96132.13
2018-07-28T01:27:04.501Z,96131.58
2018-07-28T01:28:39.680Z,96133.05
2018-07-28T01:30:21.812Z,96132.87
2018-07-28T01:31:56.970Z,96129.73
2018-07-28T01:33:32.944Z,96122.80
2018-07-28T01:35:11.008Z,96123.45
2018-07-28T01:36:46.198Z,96117.91
2018-07-28T01:38:21.350Z,96125.62
2018-07-28T01:39:56.432Z,96121.80
2018-07-28T01:41:31.581Z,96117.95
2018-07-28T01:43:07.743Z,96112.73
2018-07-28T01:44:43.077Z,96116.61
2018-07-28T01:46:19.589Z,96111.02
2018-07-28T01:47:56.125Z,96115.41
2018-07-28T01:49:31.757Z,96098.77
2018-07-28T01:51:07.635Z,96102.62
2018-07-28T01:52:43.358Z,96093.91
2018-07-28T01:54:18.516Z,96091.80
2018-07-28T01:55:53.669Z,96097.59
2018-07-28T01:57:29.288Z,96091.48
2018-07-28T01:59:05.710Z,96089.23
2018-07-28T02:00:42.624Z,96091.41
2018-07-28T02:02:18.732Z,96090.34
2018-07-28T02:03:54.229Z,96084.16
2018-07-28T02:05:29.396Z,96089.16
2018-07-28T02:07:07.184Z,96087.66
2018-07-28T02:08:42.456Z,96085.33
2018-07-28T02:10:19.138Z,96083.19
2018-07-28T02:11:54.332Z,96079.03
2018-07-28T02:13:33.345Z,96077.75
2018-07-28T02:15:09.412Z,96073.44
2018-07-28T02:16:45.333Z,96070.55
2018-07-28T02:18:20.489Z,96069.40
2018-07-28T02:20:07.535Z,96065.01
2018-07-28T02:21:43.232Z,96060.61
2018-07-28T02:23:18.412Z,96052.36
2018-07-28T02:24:54.138Z,96049.56
2018-07-28T02:26:29.336Z,96056.74
2018-07-28T02:28:04.502Z,96058.14
2018-07-28T02:29:39.697Z,96053.64
2018-07-28T02:31:14.979Z,96049.38
2018-07-28T02:32:50.563Z,96053.89
2018-07-28T02:34:26.658Z,96048.97
2018-07-28T02:36:01.868Z,96051.43
2018-07-28T02:37:37.709Z,96049.31
2018-07-28T02:39:13.422Z,96047.48
2018-07-28T02:40:48.667Z,96041.72
2018-07-28T02:42:24.696Z,96037.64
2018-07-28T02:44:01.217Z,96036.34
2018-07-28T02:45:37.809Z,96031.86
2018-07-28T02:47:18.285Z,96025.55
2018-07-28T02:49:00.470Z,96032.40
2018-07-28T02:50:39.924Z,96030.05
2018-07-28T02:52:15.173Z,96024.06
2018-07-28T02:53:50.436Z,96024.58
2018-07-28T02:55:26.800Z,96021.17
2018-07-28T02:57:08.368Z,96031.02
2018-07-28T02:58:43.798Z,96022.77
2018-07-28T03:00:18.976Z,96025.78
2018-07-28T03:01:54.717Z,96025.67
2018-07-28T03:03:30.004Z,96029.41
2018-07-28T03:05:07.952Z,96030.69
2018-07-28T03:06:54.323Z,96033.91
2018-07-28T03:08:29.480Z,96027.70
2018-07-28T03:10:05.798Z,96027.70
2018-07-28T03:11:41.945Z,96026.59
2018-07-28T03:13:17.743Z,96022.52
2018-07-28T03:14:54.638Z,96024.45
2018-07-28T03:16:30.662Z,96023.58
2018-07-28T03:18:08.255Z,96017.28
2018-07-28T03:19:43.460Z,96028.17
2018-07-28T03:21:19.034Z,96019.00
2018-07-28T03:22:55.945Z,96021.66
2018-07-28T03:24:31.762Z,96011.62
2018-07-28T03:26:07.454Z,96010.77
2018-07-28T03:27:42.778Z,96016.22
2018-07-28T03:29:18.329Z,96009.80
2018-07-28T03:30:53.841Z,96010.88
2018-07-28T03:32:29.585Z,96005.84
2018-07-28T03:34:05.112Z,96005.96
2018-07-28T03:35:40.781Z,96008.12
2018-07-28T03:37:16.054Z,96005.34
2018-07-28T03:38:52.913Z,96004.29
2018-07-28T03:40:28.214Z,96001.29
2018-07-28T03:42:03.411Z,95999.02
2018-07-28T03:43:39.208Z,95995.69
2018-07-28T03:45:15.496Z,95995.58
2018-07-28T03:46:53.011Z,95994.63
2018-07-28T03:48:28.338Z,95991.31
2018-07-28T03:50:03.574Z,95998.56
2018-07-28T03:51:39.067Z,95991.29
2018-07-28T03:53:14.230Z,96000.80
2018-07-28T03:54:49.407Z,96005.92
2018-07-28T03:56:24.614Z,96006.45
2018-07-28T03:58:01.503Z,96003.04
2018-07-28T03:59:36.797Z,95998.42
2018-07-28T04:01:13.458Z,95990.09
2018-07-28T04:02:48.713Z,95998.95
2018-07-28T04:04:23.818Z,95994.86
2018-07-28T04:05:59.572Z,95995.05
2018-07-28T04:07:34.690Z,96001.96
2018-07-28T04:09:10.690Z,96018.81
2018-07-28T04:10:45.925Z,96023.61
2018-07-28T04:12:21.990Z,96023.91
2018-07-28T04:13:58.416Z,96035.84
2018-07-28T04:15:34.332Z,96050.78
2018-07-28T04:17:09.764Z,96045.16
2018-07-28T04:18:44.877Z,96032.17
2018-07-28T04:20:22.976Z,96031.20
2018-07-28T04:21:58.221Z,96026.52
2018-07-28T04:23:33.418Z,96028.31
2018-07-28T04:25:09.548Z,96026.09
2018-07-28T04:26:44.746Z,96026.09
2018-07-28T04:28:20.489Z,96038.89
2018-07-28T04:29:55.657Z,96038.56
2018-07-28T04:31:30.955Z,96034.50
2018-07-28T04:33:06.346Z,96026.92
2018-07-28T04:34:41.442Z,96030.15
2018-07-28T04:36:17.645Z,96035.59
2018-07-28T04:37:52.821Z,96023.09
2018-07-28T04:39:28.119Z,96029.84
2018-07-28T04:41:04.175Z,96042.84
2018-07-28T04:42:40.114Z,96045.50
2018-07-28T04:44:15.557Z,96034.73
2018-07-28T04:45:50.721Z,96024.52
2018-07-28T04:47:26.270Z,96030.94
2018-07-28T04:49:01.393Z,96051.77
2018-07-28T04:50:38.261Z,96042.47
2018-07-28T04:52:13.872Z,96011.72
2018-07-28T04:53:49.038Z,95997.83
2018-07-28T04:55:24.187Z,95986.41
2018-07-28T04:56:59.332Z,95983.63
2018-07-28T04:58:34.597Z,95994.52
2018-07-28T05:00:09.835Z,96012.69
2018-07-28T05:01:45.003Z,96013.30
2018-07-28T05:03:21.209Z,95987.54
2018-07-28T05:04:57.025Z,95979.26
2018-07-28T05:06:34.684Z,95972.23
2018-07-28T05:08:17.880Z,95971.59
2018-07-28T05:09:52.981Z,95987.11
2018-07-28T05:11:28.101Z,95995.80
2018-07-28T05:13:03.307Z,96007.56
2018-07-28T05:14:39.027Z,95983.52
2018-07-28T05:16:14.522Z,95967.05
2018-07-28T05:17:49.684Z,95963.12
2018-07-28T05:19:24.934Z,95960.45
2018-07-28T05:21:00.220Z,95969.63
2018-07-28T05:22:35.701Z,95986.70
2018-07-28T05:24:11.402Z,95987.78
2018-07-28T05:25:46.606Z,95966.90
2018-07-28T05:27:22.849Z,95964.62
2018-07-28T05:29:00.757Z,95965.13
2018-07-28T05:30:37.007Z,95969.33
2018-07-28T05:32:12.113Z,95973.55
2018-07-28T05:33:47.310Z,95965.14
2018-07-28T05:35:22.707Z,95962.40
2018-07-28T05:36:58.229Z,95959.20
2018-07-28T05:38:33.345Z,95962.23
2018-07-28T05:40:08.778Z,95964.02
2018-07-28T05:41:43.974Z,95958.23
2018-07-28T05:43:19.209Z,95967.06
2018-07-28T05:44:54.617Z,95969.14
2018-07-28T05:46:29.802Z,95966.89
2018-07-28T05:48:05.003Z,95964.30
2018-07-28T05:49:40.145Z,95957.83
2018-07-28T05:51:15.210Z,95957.09
2018-07-28T05:52:51.618Z,95949.38
2018-07-28T05:54:27.745Z,95953.37
2018-07-28T05:56:02.940Z,95947.38
2018-07-28T05:57:38.174Z,95947.55
2018-07-28T05:59:14.660Z,95944.81
2018-07-28T06:00:49.765Z,95953.14
2018-07-28T06:02:25.074Z,95940.83
2018-07-28T06:04:01.983Z,95938.56
2018-07-28T06:05:38.442Z,95941.66
2018-07-28T06:07:15.065Z,95941.09
2018-07-28T06:08:51.240Z,95936.08
2018-07-28T06:10:28.627Z,95933.88
2018-07-28T06:12:06.080Z,95939.34
2018-07-28T06:13:41.665Z,95940.98
2018-07-28T06:15:17.849Z,95937.27
2018-07-28T06:16:53.554Z,95942.59
2018-07-28T06:18:30.152Z,95948.13
2018-07-28T06:20:05.378Z,95941.03
2018-07-28T06:21:40.707Z,95944.82
2018-07-28T06:23:20.660Z,95943.59
2018-07-28T06:24:56.719Z,95946.49
2018-07-28T06:26:31.927Z,95938.59
2018-07-28T06:28:07.298Z,95938.42
2018-07-28T06:29:42.612Z,95931.05
2018-07-28T06:31:20.227Z,95934.91
2018-07-28T06:32:55.694Z,95932.00
2018-07-28T06:34:30.853Z,95934.12
2018-07-28T06:36:07.410Z,95937.20
2018-07-28T06:37:45.606Z,95947.18
2018-07-28T06:39:20.797Z,95938.67
2018-07-28T06:40:56.168Z,95947.00
2018-07-28T06:42:31.420Z,95974.41
2018-07-28T06:44:09.352Z,95990.02
2018-07-28T06:45:44.664Z,95975.90
2018-07-28T06:47:22.642Z,95985.00
2018-07-28T06:49:00.720Z,96005.03
2018-07-28T06:50:38.495Z,96006.73
2018-07-28T06:52:16.010Z,96019.00
2018-07-28T06:53:51.364Z,96021.72
2018-07-28T06:55:28.469Z,96011.74
2018-07-28T06:57:04.366Z,96026.86
2018-07-28T06:58:40.856Z,96035.16
2018-07-28T07:00:20.342Z,96020.98
2018-07-28T07:01:55.466Z,96034.34
2018-07-28T07:03:30.622Z,96027.95
2018-07-28T07:05:06.840Z,96023.39
2018-07-28T07:06:43.296Z,96016.14
2018-07-28T07:08:20.298Z,96021.53
2018-07-28T07:09:55.978Z,96029.47
2018-07-28T07:11:32.757Z,96037.83
2018-07-28T07:13:09.556Z,96047.58
2018-07-28T07:14:46.248Z,96049.83
2018-07-28T07:16:27.575Z,96043.95
2018-07-28T07:18:02.774Z,96062.84
2018-07-28T07:19:38.938Z,96072.17
2018-07-28T07:21:14.598Z,96076.52
2018-07-28T07:22:50.733Z,96073.43
2018-07-28T07:24:27.282Z,96084.80
2018-07-28T07:26:05.494Z,96090.54
2018-07-28T07:27:40.684Z,96090.64
2018-07-28T07:29:16.618Z,96090.30
2018-07-28T07:30:53.102Z,96090.34
2018-07-28T07:32:29.341Z,96104.89
2018-07-28T07:34:05.723Z,96109.31
2018-07-28T07:35:43.551Z,96115.25
2018-07-28T07:37:20.802Z,96113.73
2018-07-28T07:38:57.654Z,96121.89
2018-07-28T07:40:33.034Z,96121.47
2018-07-28T07:42:20.824Z,96118.84
2018-07-28T07:43:57.402Z,96108.13
2018-07-28T07:45:38.921Z,96103.86
2018-07-28T07:47:14.523Z,96106.75
2018-07-28T07:48:53.084Z,96102.80
2018-07-28T07:50:33.827Z,96095.09
2018-07-28T07:52:11.484Z,96095.66
2018-07-28T07:53:51.514Z,96094.80
2018-07-28T07:55:31.844Z,96094.88
2018-07-28T07:57:09.767Z,96094.50
2018-07-28T07:58:47.294Z,96093.39
2018-07-28T08:00:22.974Z,96087.29
2018-07-28T08:01:59.515Z,96102.67
2018-07-28T08:03:37.114Z,96110.59
2018-07-28T08:05:13.370Z,96121.30
2018-07-28T08:06:48.901Z,96122.17
2018-07-28T08:08:25.297Z,96122.39
2018-07-28T08:10:02.306Z,96119.97
2018-07-28T08:11:38.698Z,96128.00
2018-07-28T08:13:14.535Z,96136.37
2018-07-28T08:14:52.000Z,96134.80
2018-07-28T08:16:28.778Z,96137.89
2018-07-28T08:18:03.953Z,96141.34
2018-07-28T08:19:41.282Z,96144.84
2018-07-28T08:21:20.508Z,96150.05
2018-07-28T08:22:58.112Z,96141.92
2018-07-28T08:24:33.347Z,96143.56
2018-07-28T08:26:08.621Z,96152.94
2018-07-28T08:27:45.441Z,96149.84
2018-07-28T08:29:21.791Z,96147.62
2018-07-28T08:30:57.100Z,96151.28
2018-07-28T08:32:34.750Z,96151.79
2018-07-28T08:34:11.615Z,96149.41
2018-07-28T08:35:47.157Z,96149.66
2018-07-28T08:37:22.793Z,96144.81
2018-07-28T08:38:57.987Z,96141.09
2018-07-28T08:40:34.530Z,96139.14
2018-07-28T08:42:09.872Z,96132.63
2018-07-28T08:43:46.276Z,96131.13
2018-07-28T08:45:22.488Z,96127.71
2018-07-28T08:46:58.475Z,96128.46
2018-07-28T08:48:34.391Z,96130.07
2018-07-28T08:50:11.684Z,96124.69
2018-07-28T08:51:49.122Z,96123.02
2018-07-28T08:53:34.129Z,96123.01
2018-07-28T08:55:24.891Z,96122.05
2018-07-28T08:57:04.193Z,96129.58
2018-07-28T08:58:45.413Z,96132.30
2018-07-28T09:00:20.866Z,96131.58
2018-07-28T09:01:57.541Z,96134.36
2018-07-28T09:03:41.060Z,96134.79
2018-07-28T09:05:20.193Z,96138.21
2018-07-28T09:06:58.152Z,96125.80
2018-07-28T09:08:34.862Z,96131.16
2018-07-28T09:12:34.745Z,96132.33
2018-07-28T09:16:17.781Z,96132.23
2018-07-28T09:18:09.825Z,96139.06
2018-07-28T09:19:46.030Z,96142.84
2018-07-28T09:21:21.426Z,96143.46
2018-07-28T09:23:55.079Z,96147.02
2018-07-28T09:28:15.041Z,96147.13
2018-07-28T09:29:50.417Z,96154.72
2018-07-28T09:31:27.273Z,96151.92
2018-07-28T09:33:05.384Z,96159.20
2018-07-28T09:34:40.771Z,96167.78
2018-07-28T09:36:16.498Z,96173.67
2018-07-28T09:37:53.464Z,96169.27
2018-07-28T09:39:28.945Z,96180.29
2018-07-28T09:41:06.038Z,96176.45
2018-07-28T09:43:14.803Z,96175.45
2018-07-28T09:44:57.738Z,96177.94
2018-07-28T09:46:33.129Z,96190.25
2018-07-28T09:50:07.488Z,96186.95
2018-07-28T09:51:52.783Z,96183.97
2018-07-28T09:53:32.102Z,96181.28
2018-07-28T09:55:08.008Z,96184.47
2018-07-28T09:57:00.369Z,96186.41
2018-07-28T09:58:40.585Z,96193.05
2018-07-28T10:00:25.395Z,96196.23
2018-07-28T10:04:23.891Z,96204.28
2018-07-28T10:06:00.456Z,96200.22
2018-07-28T10:07:36.986Z,96193.50
2018-07-28T10:09:14.234Z,96187.38
2018-07-28T10:10:50.784Z,96185.83
2018-07-28T10:12:30.087Z,96182.98
2018-07-28T10:14:08.240Z,96181.83
2018-07-28T10:16:06.339Z,96185.88
2018-07-28T10:22:21.732Z,96179.41
2018-07-28T10:24:17.223Z,96171.12
2018-07-28T10:32:34.586Z,96171.45
2018-07-28T10:36:22.981Z,96156.98
2018-07-28T10:38:04.339Z,96156.59
2018-07-28T10:39:41.482Z,96159.87
2018-07-28T10:41:19.573Z,96163.52
2018-07-28T10:42:58.557Z,96159.86
2018-07-28T10:44:42.470Z,96156.91
2018-07-28T10:46:23.817Z,96161.18
2018-07-28T10:48:08.264Z,96163.83
2018-07-28T10:49:49.528Z,96158.86
2018-07-28T10:51:33.300Z,96162.77
2018-07-28T10:53:21.284Z,96154.77
2018-07-28T10:55:05.249Z,96155.03
2018-07-28T10:56:43.669Z,96160.23
2018-07-28T10:58:28.380Z,96161.44
2018-07-28T11:00:16.494Z,96165.67
2018-07-28T11:01:54.516Z,96153.30
2018-07-28T11:03:30.964Z,96154.79
2018-07-28T11:05:17.425Z,96152.47
2018-07-28T11:07:03.371Z,96148.50
2018-07-28T11:08:42.065Z,96147.45
2018-07-28T11:10:25.823Z,96152.35
2018-07-28T11:12:02.837Z,96150.11
2018-07-28T11:13:46.549Z,96149.09
2018-07-28T11:15:48.997Z,96145.81
2018-07-28T11:17:44.683Z,96144.59
2018-07-28T11:19:29.469Z,96149.57
2018-07-28T11:21:08.253Z,96145.64
2018-07-28T11:22:52.517Z,96143.67
2018-07-28T11:24:36.058Z,96144.83
2018-07-28T11:26:34.182Z,96141.27
2018-07-28T11:28:26.739Z,96147.94
2018-07-28T11:30:25.353Z,96146.59
2018-07-28T11:32:14.019Z,96150.86
2018-07-28T11:34:05.068Z,96144.55
2018-07-28T11:36:01.970Z,96135.97
2018-07-28T11:38:08.712Z,96140.69
2018-07-28T11:40:05.281Z,96138.25
2018-07-28T11:41:55.245Z,96136.70
2018-07-28T11:43:43.751Z,96135.46
2018-07-28T11:45:45.235Z,96143.44
2018-07-28T11:47:32.512Z,96142.44
2018-07-28T11:49:18.101Z,96143.15
2018-07-28T11:51:08.975Z,96146.03
2018-07-28T11:52:54.161Z,96143.95
2018-07-28T11:54:29.801Z,96138.52
2018-07-28T11:56:08.932Z,96137.38
2018-07-28T11:58:10.540Z,96140.84
2018-07-28T12:00:07.875Z,96140.97
2018-07-28T12:01:59.312Z,96140.92
2018-07-28T12:06:01.958Z,96155.78
2018-07-28T12:07:46.208Z,96163.86
2018-07-28T12:09:24.656Z,96165.32
2018-07-28T12:11:01.325Z,96154.59
2018-07-28T12:12:37.603Z,96143.09
2018-07-28T12:14:23.696Z,96147.62
2018-07-28T12:16:08.930Z,96150.85
2018-07-28T12:17:53.654Z,96148.88
2018-07-28T12:19:33.135Z,96149.77
2018-07-28T12:21:13.536Z,96141.95
2018-07-28T12:22:49.114Z,96139.80
2018-07-28T12:24:29.332Z,96136.21
2018-07-28T12:26:37.775Z,96140.67
2018-07-28T12:28:45.565Z,96146.80
2018-07-28T12:30:22.811Z,96156.25
2018-07-28T12:32:04.239Z,96168.59
2018-07-28T12:33:42.429Z,96174.87
2018-07-28T12:35:18.762Z,96185.38
2018-07-28T12:36:57.356Z,96189.55
2018-07-28T12:38:33.021Z,96195.40
2018-07-28T12:40:09.843Z,96199.24
2018-07-28T12:41:49.593Z,96195.27
2018-07-28T12:43:26.044Z,96189.23
2018-07-28T12:45:03.249Z,96195.08
2018-07-28T12:46:41.122Z,96194.19
2018-07-28T12:48:16.457Z,96196.02
2018-07-28T12:49:52.557Z,96199.06
2018-07-28T12:51:28.705Z,96190.72
2018-07-28T12:53:04.056Z,96200.69
2018-07-28T12:56:19.195Z,96189.75
2018-07-28T12:57:56.052Z,96196.78
2018-07-28T12:59:32.036Z,96196.95
2018-07-28T13:01:08.770Z,96196.17
2018-07-28T13:02:47.721Z,96196.66
2018-07-28T13:04:27.192Z,96203.78
2018-07-28T13:06:07.162Z,96199.56
2018-07-28T13:07:42.453Z,96198.48
2018-07-28T13:09:26.723Z,96194.35
2018-07-28T13:11:05.550Z,96189.48
2018-07-28T13:12:41.611Z,96180.13
2018-07-28T13:14:31.471Z,96183.05
2018-07-28T13:16:09.514Z,96189.43
2018-07-28T13:17:45.588Z,96189.11
2018-07-28T13:19:32.581Z,96191.12
2018-07-28T13:21:11.342Z,96193.79
2018-07-28T13:23:08.789Z,96192.80
2018-07-28T13:24:47.614Z,96201.70
2018-07-28T13:26:23.221Z,96198.36
2018-07-28T13:27:59.613Z,96198.13
2018-07-28T13:29:35.293Z,96201.77
2018-07-28T13:31:13.948Z,96203.34
2018-07-28T13:32:50.639Z,96200.06
2018-07-28T13:34:26.345Z,96204.36
2018-07-28T13:36:03.401Z,96206.75
2018-07-28T13:37:40.392Z,96206.17
2018-07-28T13:39:19.338Z,96201.73
2018-07-28T13:40:55.684Z,96194.18
2018-07-28T13:42:33.711Z,96196.72
2018-07-28T13:44:10.466Z,96191.50
2018-07-28T13:45:49.304Z,96189.45
2018-07-28T13:47:24.765Z,96191.89
2018-07-28T13:49:11.062Z,96183.45
2018-07-28T13:50:51.483Z,96183.02
2018-07-28T13:52:27.852Z,96180.88
2018-07-28T13:54:03.921Z,96171.45
2018-07-28T13:55:40.928Z,96177.33
2018-07-28T13:57:19.285Z,96186.00
2018-07-28T13:58:55.593Z,96182.64
2018-07-28T14:00:33.649Z,96186.66
2018-07-28T14:02:12.235Z,96185.00
2018-07-28T14:03:51.256Z,96181.22
2018-07-28T14:05:29.657Z,96184.91
2018-07-28T14:08:38.041Z,96193.00
2018-07-28T14:10:27.836Z,96187.63
2018-07-28T14:12:04.424Z,96182.70
2018-07-28T14:13:42.803Z,96181.86
2018-07-28T14:15:21.789Z,96179.19
2018-07-28T14:16:57.982Z,96173.04
2018-07-28T14:18:39.269Z,96170.83
2018-07-28T14:20:18.661Z,96175.02
2018-07-28T14:21:58.100Z,96177.78
2018-07-28T14:23:35.915Z,96177.66
2018-07-28T14:25:18.254Z,96173.00
2018-07-28T14:26:53.806Z,96168.13
2018-07-28T14:28:29.851Z,96169.35
2018-07-28T14:30:09.766Z,96183.48
2018-07-28T14:31:45.859Z,96182.27
2018-07-28T14:33:21.958Z,96185.98
2018-07-28T14:35:01.753Z,96180.86
2018-07-28T14:36:38.687Z,96196.48
2018-07-28T14:38:14.962Z,96186.86
2018-07-28T14:39:50.556Z,96185.06
2018-07-28T14:41:28.128Z,96191.23
2018-07-28T14:43:04.416Z,96194.04
2018-07-28T14:44:49.985Z,96196.76
2018-07-28T14:46:28.939Z,96203.66
2018-07-28T14:48:08.208Z,96203.28
2018-07-28T14:49:45.053Z,96213.83
2018-07-28T14:51:25.924Z,96216.16
2018-07-28T14:53:01.708Z,96207.38
2018-07-28T14:54:39.825Z,96210.11
2018-07-28T14:56:15.341Z,96216.06
2018-07-28T14:57:54.565Z,96211.41
2018-07-28T14:59:31.427Z,96211.05
2018-07-28T15:01:07.158Z,96208.77
2018-07-28T15:02:42.657Z,96212.59
2018-07-28T15:04:18.529Z,96206.55
2018-07-28T15:05:53.802Z,96204.79
2018-07-28T15:07:29.603Z,96206.76
2018-07-28T15:09:10.231Z,96212.99
2018-07-28T15:10:52.562Z,96220.84
2018-07-28T15:12:29.512Z,96209.53
2018-07-28T15:14:12.683Z,96213.40
2018-07-28T15:15:50.032Z,96210.37
2018-07-28T15:17:28.876Z,96224.45
2018-07-28T15:19:04.174Z,96222.24
2018-07-28T15:20:41.867Z,96219.70
2018-07-28T15:22:23.433Z,96227.83
2018-07-28T15:23:59.924Z,96228.87
2018-07-28T15:25:37.744Z,96232.88
2018-07-28T15:27:16.982Z,96242.02
2018-07-28T15:28:53.812Z,96243.13
2018-07-28T15:30:32.198Z,96244.33
2018-07-28T15:32:12.624Z,96242.08
2018-07-28T15:33:49.599Z,96248.63
2018-07-28T15:35:28.803Z,96251.42
2018-07-28T15:37:06.625Z,96244.58
2018-07-28T15:38:45.481Z,96244.11
2018-07-28T15:40:22.356Z,96243.26
2018-07-28T15:41:58.682Z,96244.22
2018-07-28T15:43:41.585Z,96238.52
2018-07-28T15:45:19.350Z,96239.61
2018-07-28T15:46:58.836Z,96238.95
2018-07-28T15:48:34.653Z,96241.95
2018-07-28T15:50:10.961Z,96242.65
2018-07-28T15:51:49.734Z,96242.22
2018-07-28T15:53:25.556Z,96239.22
2018-07-28T15:55:03.722Z,96243.01
2018-07-28T15:56:41.250Z,96246.55
2018-07-28T15:58:24.664Z,96265.77
2018-07-28T16:00:04.766Z,96278.55
2018-07-28T16:01:43.494Z,96283.08
2018-07-28T16:03:22.841Z,96265.19
2018-07-28T16:05:00.511Z,96259.80
2018-07-28T16:06:40.087Z,96268.32
2018-07-28T16:08:17.895Z,96272.06
2018-07-28T16:09:56.678Z,96269.77
2018-07-28T16:11:33.432Z,96278.75
2018-07-28T16:13:12.085Z,96278.44
2018-07-28T16:15:01.405Z,96278.61
2018-07-28T16:16:43.573Z,96278.79
2018-07-28T16:18:26.077Z,96276.41
2018-07-28T16:20:05.881Z,96266.47
2018-07-28T16:21:45.524Z,96272.09
2018-07-28T16:23:31.082Z,96274.63
2018-07-28T16:25:10.094Z,96279.44
2018-07-28T16:26:48.568Z,96272.83
2018-07-28T16:28:25.377Z,96272.88
2018-07-28T16:30:09.712Z,96270.81
2018-07-28T16:31:47.509Z,96272.05
2018-07-28T16:33:25.080Z,96274.40
2018-07-28T16:35:08.285Z,96284.78
2018-07-28T16:36:45.435Z,96281.55
2018-07-28T16:38:23.302Z,96274.16
2018-07-28T16:39:58.387Z,96275.86
2018-07-28T16:41:35.264Z,96283.79
2018-07-28T16:43:10.670Z,96294.39
2018-07-28T16:44:47.149Z,96289.99
2018-07-28T16:46:31.998Z,96292.36
2018-07-28T16:48:09.096Z,96299.30
2018-07-28T16:49:44.696Z,96300.66
2018-07-28T16:51:20.439Z,96301.16
2018-07-28T16:53:08.589Z,96298.34
2018-07-28T16:54:44.464Z,96308.80
2018-07-28T16:56:21.241Z,96303.73
2018-07-28T16:58:01.673Z,96303.08
2018-07-28T16:59:37.487Z,96307.55
2018-07-28T17:01:12.698Z,96309.10
2018-07-28T17:02:47.897Z,96309.79
2018-07-28T17:04:25.279Z,96313.00
2018-07-28T17:06:03.901Z,96311.24
2018-07-28T17:07:40.568Z,96313.84
2018-07-28T17:09:16.053Z,96314.31
2018-07-28T17:10:53.421Z,96314.09
2018-07-28T17:12:31.157Z,96315.90
2018-07-28T17:14:14.686Z,96320.77
2018-07-28T17:15:52.654Z,96322.08
2018-07-28T17:17:30.611Z,96320.41
2018-07-28T17:19:09.012Z,96320.39
2018-07-28T17:20:47.403Z,96316.56
2018-07-28T17:22:25.157Z,96317.38
2018-07-28T17:24:01.547Z,96317.02
2018-07-28T17:25:53.503Z,96322.73
2018-07-28T17:27:35.403Z,96326.66
2018-07-28T17:29:18.350Z,96320.00
2018-07-28T17:31:14.217Z,96317.16
2018-07-28T17:35:08.534Z,96317.47
2018-07-28T17:38:29.095Z,96327.98
2018-07-28T17:40:08.656Z,96338.81
2018-07-28T17:41:44.415Z,96327.67
2018-07-28T17:43:21.445Z,96332.91
2018-07-28T17:45:06.664Z,96332.83
2018-07-28T17:46:43.959Z,96338.12
2018-07-28T17:48:24.590Z,96342.70
2018-07-28T17:50:06.472Z,96352.61
2018-07-28T17:51:46.186Z,96354.25
2018-07-28T17:53:25.561Z,96362.80
2018-07-28T17:55:01.322Z,96361.08
2018-07-28T17:56:39.184Z,96369.32
2018-07-28T17:58:16.646Z,96363.64
2018-07-28T17:59:55.230Z,96362.84
2018-07-28T18:01:32.603Z,96365.83
2018-07-28T18:03:09.148Z,96354.19
2018-07-28T18:04:46.523Z,96364.14
2018-07-28T18:06:25.138Z,96363.24
2018-07-28T18:08:09.769Z,96367.75
2018-07-28T18:09:45.532Z,96378.47
2018-07-28T18:11:24.044Z,96385.90
2018-07-28T18:13:01.616Z,96380.88
2018-07-28T18:14:42.342Z,96379.16
2018-07-28T18:17:46.103Z,96379.16
2018-07-28T18:19:31.768Z,96377.11
2018-07-28T18:21:09.015Z,96379.18
2018-07-28T18:22:50.802Z,96383.69
2018-07-28T18:24:31.474Z,96392.50
2018-07-28T18:26:16.044Z,96400.91
2018-07-28T18:27:55.295Z,96408.24
2018-07-28T18:29:37.105Z,96410.65
2018-07-28T18:31:14.806Z,96422.75
2018-07-28T18:32:59.762Z,96418.14
2018-07-28T18:34:38.589Z,96422.06
2018-07-28T18:36:19.235Z,96424.14
2018-07-28T18:37:56.789Z,96422.44
2018-07-28T18:39:35.039Z,96422.77
2018-07-28T18:41:13.293Z,96432.55
2018-07-28T18:42:52.361Z,96435.59
2018-07-28T18:44:28.582Z,96443.01
2018-07-28T18:46:04.870Z,96461.34
2018-07-28T18:47:41.451Z,96463.38
2018-07-28T18:49:20.111Z,96469.53
2018-07-28T18:51:00.003Z,96469.27
2018-07-28T18:52:37.642Z,96470.25
2018-07-28T18:54:16.832Z,96470.52
2018-07-28T18:55:55.798Z,96470.98
2018-07-28T18:57:35.453Z,96478.53
2018-07-28T18:59:11.511Z,96472.17
2018-07-28T19:00:54.111Z,96474.47
2018-07-28T19:02:31.112Z,96465.41
2018-07-28T19:04:08.791Z,96470.11
2018-07-28T19:05:46.521Z,96471.25
2018-07-28T19:07:23.255Z,96475.30
2018-07-28T19:09:05.489Z,96473.08
2018-07-28T19:10:42.059Z,96484.38
2018-07-28T19:12:18.909Z,96488.39
2018-07-28T19:14:01.544Z,96495.20
2018-07-28T19:15:37.891Z,96497.41
2018-07-28T19:17:19.991Z,96498.69
2018-07-28T19:19:04.233Z,96496.85
2018-07-28T19:20:44.897Z,96508.61
2018-07-28T19:22:24.939Z,96509.69
2018-07-28T19:24:01.330Z,96510.16
2018-07-28T19:25:38.531Z,96515.88
2018-07-28T19:27:14.650Z,96519.36
2018-07-28T19:28:55.463Z,96517.37
2018-07-28T19:30:33.875Z,96518.20
2018-07-28T19:32:12.960Z,96518.72
2018-07-28T19:33:51.059Z,96521.02
2018-07-28T19:35:33.508Z,96523.43
2018-07-28T19:37:20.445Z,96523.95
2018-07-28T19:39:04.166Z,96524.22
2018-07-28T19:43:05.214Z,96533.97
2018-07-28T19:44:45.980Z,96536.92
2018-07-28T19:46:22.738Z,96545.19
2018-07-28T19:48:02.327Z,96546.72
2018-07-28T19:49:43.198Z,96548.05
2018-07-28T19:51:31.819Z,96549.46
2018-07-28T19:53:16.500Z,96558.73
2018-07-28T19:55:14.133Z,96550.45
2018-07-28T19:56:52.739Z,96559.50
2018-07-28T19:58:40.862Z,96561.19
2018-07-28T20:00:17.718Z,96560.82
2018-07-28T20:01:55.289Z,96561.36
2018-07-28T20:03:31.453Z,96558.72
2018-07-28T20:05:10.479Z,96567.56
2018-07-28T20:06:48.847Z,96562.42
2018-07-28T20:08:25.478Z,96560.92
2018-07-28T20:10:02.854Z,96570.13